Time;durP1;ratioP1;P1;durP2;ratioP2;P2;SDS_P1;SDS_P2;PMS_P1;PMS_P2;Temp;Humidity;BMP_temperature;BMP_pressure;BME280_temperature;BME280_humidity;BME280_pressure;Samples;Min_cycle;Max_cycle;Signal;HPM_P1;HPM_P2
2023/01/09 00:01:29;;;;;;;4.90;4.50;;;21.80;58.80;;;;;;4920287;29;21197;-78
2023/01/09 00:03:57;;;;;;;4.33;3.93;;;21.80;58.80;;;;;;4920355;29;20569;-79
2023/01/09 00:06:26;;;;;;;5.80;5.30;;;21.80;58.80;;;;;;4919373;29;20532;-79
2023/01/09 00:08:55;;;;;;;4.30;4.00;;;21.80;58.80;;;;;;4921382;29;20570;-79
2023/01/09 00:11:23;;;;;;;5.10;4.77;;;21.80;58.80;;;;;;4923472;29;20522;-79
2023/01/09 00:13:51;;;;;;;5.00;4.63;;;21.80;58.80;;;;;;4927682;29;20893;-79
2023/01/09 00:16:19;;;;;;;4.57;4.23;;;21.70;58.80;;;;;;4932855;29;20436;-79
2023/01/09 00:18:48;;;;;;;4.37;4.07;;;21.70;58.90;;;;;;4933419;29;21025;-79
2023/01/09 00:21:16;;;;;;;5.23;4.73;;;21.70;58.90;;;;;;4933479;29;20450;-79
2023/01/09 00:23:45;;;;;;;4.77;4.37;;;21.70;58.80;;;;;;4932529;29;20775;-80
2023/01/09 00:26:16;;;;;;;4.63;4.23;;;21.70;58.80;;;;;;4933640;29;20931;-80
2023/01/09 00:28:45;;;;;;;4.97;4.57;;;21.70;58.90;;;;;;4933590;29;20455;-79
2023/01/09 00:31:13;;;;;;;5.57;5.07;;;21.60;58.90;;;;;;4934863;29;20454;-79
2023/01/09 00:33:44;;;;;;;5.73;5.33;;;21.60;58.90;;;;;;4935070;29;20458;-80
2023/01/09 00:36:13;;;;;;;5.33;4.93;;;21.60;59.00;;;;;;4935953;29;20457;-80
2023/01/09 00:38:41;;;;;;;5.47;5.07;;;21.60;59.10;;;;;;4937555;29;20478;-79
2023/01/09 00:41:15;;;;;;;5.60;5.20;;;21.60;59.00;;;;;;4936827;29;20494;-79
2023/01/09 00:43:45;;;;;;;5.17;4.77;;;21.60;59.10;;;;;;4931384;29;20993;-79
2023/01/09 00:46:14;;;;;;;5.70;5.20;;;21.60;59.10;;;;;;4927785;29;20496;-79
2023/01/09 00:48:45;;;;;;;5.10;4.70;;;21.60;59.10;;;;;;4936573;29;20438;-78
2023/01/09 00:51:14;;;;;;;5.53;5.13;;;21.60;59.00;;;;;;4935373;29;20453;-79
2023/01/09 00:53:43;;;;;;;5.23;4.77;;;21.60;59.00;;;;;;4933474;29;20497;-79
2023/01/09 00:56:18;;;;;;;5.70;5.20;;;21.60;58.90;;;;;;4934027;29;20466;-79
2023/01/09 00:58:49;;;;;;;5.57;5.07;;;21.60;58.90;;;;;;4936586;29;20474;-79
2023/01/09 01:01:17;;;;;;;5.90;5.40;;;21.70;58.90;;;;;;4928692;29;20523;-80
2023/01/09 01:03:45;;;;;;;5.47;5.00;;;21.70;58.90;;;;;;4928649;29;20464;-79
2023/01/09 01:08:59;;;;;;;5.87;5.27;;;21.70;58.80;;;;;;4936444;29;20546;-78
2023/01/09 01:11:29;;;;;;;5.60;5.10;;;21.70;58.60;;;;;;4933852;29;20546;-79
2023/01/09 01:13:57;;;;;;;6.20;5.60;;;21.70;58.60;;;;;;4935590;29;20499;-79
2023/01/09 01:16:26;;;;;;;5.30;4.90;;;21.70;58.60;;;;;;4931592;29;20534;-81
2023/01/09 01:18:54;;;;;;;5.67;5.17;;;21.70;58.50;;;;;;4934504;29;20534;-80
2023/01/09 01:21:22;;;;;;;4.77;4.40;;;21.70;58.50;;;;;;4934943;29;20511;-79
2023/01/09 01:23:50;;;;;;;5.07;4.60;;;21.70;58.50;;;;;;4933300;29;20464;-78
2023/01/09 01:26:19;;;;;;;5.30;4.90;;;21.70;58.40;;;;;;4936019;29;20503;-76
2023/01/09 01:28:48;;;;;;;4.77;4.47;;;21.70;58.40;;;;;;4936560;29;20490;-79
2023/01/09 01:31:18;;;;;;;5.77;4.87;;;21.70;58.40;;;;;;4935089;29;20455;-80
2023/01/09 01:33:47;;;;;;;5.47;5.07;;;21.70;58.40;;;;;;4934983;29;20536;-80
2023/01/09 01:36:16;;;;;;;6.90;4.87;;;21.70;58.40;;;;;;4935057;29;20510;-80
2023/01/09 01:38:46;;;;;;;5.70;5.23;;;21.70;58.40;;;;;;4936292;29;20582;-79
2023/01/09 01:41:28;;;;;;;5.50;5.10;;;21.70;58.30;;;;;;4935356;29;20847;-80
2023/01/09 01:43:59;;;;;;;4.30;3.90;;;21.70;58.30;;;;;;4934782;29;20498;-80
2023/01/09 01:46:28;;;;;;;5.63;5.13;;;21.70;58.30;;;;;;4935122;29;20475;-80
2023/01/09 01:49:01;;;;;;;4.50;3.90;;;21.70;58.20;;;;;;4935695;29;20420;-81
2023/01/09 01:51:31;;;;;;;5.10;4.70;;;21.70;58.20;;;;;;4934355;29;20559;-80
2023/01/09 01:54:06;;;;;;;4.33;4.00;;;21.70;58.10;;;;;;4935486;29;20556;-80
2023/01/09 01:56:37;;;;;;;4.47;4.17;;;21.70;58.10;;;;;;4935387;29;20554;-79
2023/01/09 01:59:14;;;;;;;6.00;4.47;;;21.70;58.10;;;;;;4935601;29;20931;-78
2023/01/09 02:01:45;;;;;;;5.07;4.57;;;21.70;58.10;;;;;;4933816;29;20949;-79
2023/01/09 02:04:14;;;;;;;3.77;3.47;;;21.70;58.10;;;;;;4935366;29;20781;-80
2023/01/09 02:06:44;;;;;;;4.67;4.37;;;21.70;58.10;;;;;;4933800;29;20465;-80
2023/01/09 02:09:14;;;;;;;4.43;4.03;;;21.70;58.10;;;;;;4934300;29;20458;-80
2023/01/09 02:11:45;;;;;;;4.27;3.97;;;21.70;58.00;;;;;;4933628;29;20533;-78
2023/01/09 02:14:16;;;;;;;4.13;3.83;;;21.70;58.10;;;;;;4932979;29;20526;-80
2023/01/09 02:16:53;;;;;;;3.97;3.67;;;21.70;58.00;;;;;;4934743;29;20895;-80
2023/01/09 02:19:49;;;;;;;3.83;3.63;;;21.70;57.90;;;;;;4934898;29;20471;-78
2023/01/09 02:22:26;;;;;;;3.80;3.60;;;21.70;58.00;;;;;;4934212;29;21037;-80
2023/01/09 02:25:19;;;;;;;3.97;3.63;;;21.70;58.00;;;;;;4935111;29;20567;-79
2023/01/09 02:28:22;;;;;;;3.73;3.53;;;21.70;57.80;;;;;;4934842;29;20460;-80
2023/01/09 02:30:57;;;;;;;3.67;3.37;;;21.70;57.80;;;;;;4933087;29;21103;-79
2023/01/09 02:33:36;;;;;;;3.33;3.13;;;21.70;57.90;;;;;;4932148;29;20478;-80
2023/01/09 02:36:16;;;;;;;3.60;3.30;;;21.70;58.00;;;;;;4933083;29;20501;-80
2023/01/09 02:38:53;;;;;;;3.53;3.23;;;21.70;58.10;;;;;;4934947;29;20571;-79
2023/01/09 02:41:26;;;;;;;3.17;2.97;;;21.70;58.00;;;;;;4932823;29;20583;-78
2023/01/09 02:44:12;;;;;;;2.77;2.63;;;21.70;58.00;;;;;;4934664;29;20454;-80
2023/01/09 02:46:41;;;;;;;3.73;3.40;;;21.70;57.90;;;;;;4931289;29;20543;-80
2023/01/09 02:49:10;;;;;;;3.47;3.17;;;21.70;57.80;;;;;;4934553;29;20512;-79
2023/01/09 02:51:47;;;;;;;2.23;2.13;;;21.70;57.90;;;;;;4927445;29;20503;-80
2023/01/09 02:54:23;;;;;;;3.30;3.00;;;21.70;57.80;;;;;;4928590;29;20469;-79
2023/01/09 02:57:16;;;;;;;2.77;2.63;;;21.60;57.90;;;;;;4935064;29;20916;-79
2023/01/09 03:00:01;;;;;;;2.93;2.57;;;21.60;57.90;;;;;;4931678;29;20519;-79
2023/01/09 03:02:44;;;;;;;2.00;1.90;;;21.60;57.90;;;;;;4920705;29;20460;-78
2023/01/09 03:05:20;;;;;;;2.37;2.17;;;21.60;57.80;;;;;;4930823;29;20467;-79
2023/01/09 03:07:55;;;;;;;2.10;2.00;;;21.70;57.80;;;;;;4934136;29;20519;-80
2023/01/09 03:10:31;;;;;;;2.10;2.00;;;21.70;57.80;;;;;;4931185;29;20463;-79
2023/01/09 03:13:02;;;;;;;2.60;2.40;;;21.60;57.90;;;;;;4929133;29;20894;-80
2023/01/09 03:15:34;;;;;;;2.00;1.90;;;21.60;57.90;;;;;;4934225;29;20460;-80
2023/01/09 03:18:05;;;;;;;2.00;1.80;;;21.60;57.90;;;;;;4933609;29;20467;-79
2023/01/09 03:20:34;;;;;;;2.00;1.90;;;21.60;57.90;;;;;;4933884;29;20567;-80
2023/01/09 03:23:05;;;;;;;1.90;1.80;;;21.60;57.90;;;;;;4929802;29;20974;-80
2023/01/09 03:25:34;;;;;;;2.30;2.10;;;21.60;57.90;;;;;;4934058;29;20785;-79
2023/01/09 03:28:05;;;;;;;2.20;2.00;;;21.60;57.80;;;;;;4933909;29;20491;-79
2023/01/09 03:30:35;;;;;;;1.90;1.80;;;21.60;57.80;;;;;;4933790;29;20456;-80
2023/01/09 03:33:04;;;;;;;1.77;1.67;;;21.60;57.80;;;;;;4921223;29;20804;-79
2023/01/09 03:35:32;;;;;;;1.53;1.43;;;21.60;57.70;;;;;;4934106;29;20534;-79
2023/01/09 03:38:00;;;;;;;2.63;2.53;;;21.60;57.70;;;;;;4934248;29;20427;-80
2023/01/09 03:40:29;;;;;;;1.33;1.33;;;21.60;57.70;;;;;;4933923;29;20526;-79
2023/01/09 03:42:57;;;;;;;2.10;2.00;;;21.60;57.60;;;;;;4932461;29;20546;-80
2023/01/09 03:45:25;;;;;;;1.70;1.60;;;21.60;57.60;;;;;;4933855;29;20478;-79
2023/01/09 03:47:53;;;;;;;1.70;1.60;;;21.60;57.60;;;;;;4933308;29;20449;-79
2023/01/09 03:50:23;;;;;;;1.47;1.40;;;21.60;57.60;;;;;;4931110;29;20547;-80
2023/01/09 03:52:51;;;;;;;1.83;1.73;;;21.60;57.60;;;;;;4928071;29;20462;-80
2023/01/09 03:55:19;;;;;;;1.83;1.73;;;21.60;57.60;;;;;;4933144;29;20456;-80
2023/01/09 03:57:47;;;;;;;1.60;1.50;;;21.60;57.60;;;;;;4933319;29;20457;-80
2023/01/09 04:00:17;;;;;;;1.30;1.20;;;21.60;57.60;;;;;;4921591;29;20503;-79
2023/01/09 04:02:48;;;;;;;1.70;1.60;;;21.60;57.60;;;;;;4927687;29;20541;-79
2023/01/09 04:05:17;;;;;;;1.60;1.50;;;21.60;57.60;;;;;;4935892;29;20515;-80
2023/01/09 04:07:46;;;;;;;1.93;1.80;;;21.60;57.60;;;;;;4934062;29;20443;-79
2023/01/09 04:10:14;;;;;;;1.80;1.70;;;21.60;57.60;;;;;;4937613;29;20530;-80
2023/01/09 04:12:42;;;;;;;1.80;1.70;;;21.60;57.70;;;;;;4936776;29;20455;-78
2023/01/09 04:15:11;;;;;;;1.90;1.70;;;21.60;57.70;;;;;;4936641;29;20874;-79
2023/01/09 04:17:39;;;;;;;1.60;1.50;;;21.60;57.80;;;;;;4936098;29;20486;-78
2023/01/09 04:20:08;;;;;;;1.40;1.30;;;21.60;57.80;;;;;;4936502;29;20534;-79
2023/01/09 04:22:37;;;;;;;2.00;1.80;;;21.60;57.80;;;;;;4933853;29;20546;-79
2023/01/09 04:25:07;;;;;;;1.57;1.47;;;21.60;57.80;;;;;;4933552;29;20574;-79
2023/01/09 04:27:36;;;;;;;1.50;1.40;;;21.50;57.90;;;;;;4936801;29;20451;-79
2023/01/09 04:30:05;;;;;;;1.27;1.20;;;21.50;57.90;;;;;;4935700;29;20503;-79
2023/01/09 04:32:33;;;;;;;1.73;1.63;;;21.50;57.90;;;;;;4930087;29;20522;-79
2023/01/09 04:35:01;;;;;;;1.27;1.23;;;21.50;57.90;;;;;;4936802;29;20537;-80
2023/01/09 04:37:29;;;;;;;1.53;1.43;;;21.50;58.00;;;;;;4936782;29;20436;-80
2023/01/09 04:39:58;;;;;;;1.60;1.50;;;21.50;57.90;;;;;;4936451;29;20556;-80
2023/01/09 04:42:27;;;;;;;1.40;1.30;;;21.50;57.90;;;;;;4934574;29;20463;-79
2023/01/09 04:44:55;;;;;;;1.30;1.30;;;21.50;57.90;;;;;;4935806;29;20523;-79
2023/01/09 04:47:23;;;;;;;1.13;1.03;;;21.50;57.90;;;;;;4936483;29;20458;-79
2023/01/09 04:49:51;;;;;;;1.53;1.20;;;21.50;57.90;;;;;;4936557;29;20525;-79
2023/01/09 04:52:20;;;;;;;1.30;1.30;;;21.50;57.80;;;;;;4930218;29;20547;-79
2023/01/09 04:54:48;;;;;;;1.13;1.13;;;21.50;57.80;;;;;;4928590;29;20494;-82
2023/01/09 04:57:17;;;;;;;1.20;1.20;;;21.50;57.80;;;;;;4920145;29;20440;-80
2023/01/09 04:59:47;;;;;;;0.97;0.97;;;21.50;57.70;;;;;;4926492;29;20475;-81
2023/01/09 05:02:15;;;;;;;0.87;0.87;;;21.50;57.70;;;;;;4935770;29;20541;-81
2023/01/09 05:04:43;;;;;;;1.07;1.07;;;21.50;57.80;;;;;;4933258;29;20553;-81
2023/01/09 05:07:11;;;;;;;1.10;1.00;;;21.40;57.70;;;;;;4934932;29;20807;-81
2023/01/09 05:09:39;;;;;;;1.47;1.07;;;21.40;57.70;;;;;;4934229;29;21323;-81
2023/01/09 05:12:08;;;;;;;0.90;0.90;;;21.40;57.70;;;;;;4934928;29;20479;-81
2023/01/09 05:14:36;;;;;;;1.00;1.00;;;21.40;57.70;;;;;;4934490;29;20490;-80
2023/01/09 05:17:05;;;;;;;0.73;0.73;;;21.40;57.70;;;;;;4930221;29;20455;-80
2023/01/09 05:19:34;;;;;;;0.80;0.80;;;21.50;57.60;;;;;;4935053;29;20894;-80
2023/01/09 05:22:02;;;;;;;0.83;0.83;;;21.40;57.50;;;;;;4928867;29;20578;-79
2023/01/09 05:24:30;;;;;;;0.70;0.70;;;21.40;57.60;;;;;;4931722;29;20556;-78
2023/01/09 05:26:58;;;;;;;1.40;0.87;;;21.50;57.60;;;;;;4933112;29;20467;-80
2023/01/09 05:29:26;;;;;;;0.80;0.80;;;21.50;57.60;;;;;;4931753;29;20465;-76
2023/01/09 05:31:54;;;;;;;1.00;1.00;;;21.40;57.50;;;;;;4931957;29;20498;-80
2023/01/09 05:34:24;;;;;;;1.90;0.97;;;21.50;57.50;;;;;;4932839;29;20456;-76
2023/01/09 05:36:52;;;;;;;0.67;0.67;;;21.40;57.50;;;;;;4928547;29;20462;-80
2023/01/09 05:39:20;;;;;;;0.67;0.60;;;21.50;57.50;;;;;;4933691;29;20842;-81
2023/01/09 05:41:49;;;;;;;0.93;0.80;;;21.50;57.50;;;;;;4931985;29;20553;-78
2023/01/09 05:44:17;;;;;;;0.53;0.53;;;21.50;57.40;;;;;;4933818;29;20481;-79
2023/01/09 05:46:45;;;;;;;0.60;0.60;;;21.50;57.30;;;;;;4930525;29;20471;-76
2023/01/09 05:49:13;;;;;;;0.60;0.60;;;21.50;57.50;;;;;;4929311;29;20463;-80
2023/01/09 05:51:43;;;;;;;0.60;0.60;;;21.60;57.50;;;;;;4929760;29;20562;-82
2023/01/09 05:54:11;;;;;;;0.60;0.60;;;21.60;57.40;;;;;;4932567;29;20454;-80
2023/01/09 05:56:39;;;;;;;0.80;0.77;;;21.60;57.70;;;;;;4929376;29;20551;-83
2023/01/09 05:59:07;;;;;;;0.60;0.60;;;21.60;58.00;;;;;;4935833;29;20476;-78
2023/01/09 06:01:35;;;;;;;0.80;0.80;;;21.60;58.10;;;;;;4931346;29;20509;-80
2023/01/09 06:04:04;;;;;;;0.50;0.50;;;21.60;58.30;;;;;;4935632;29;21003;-79
2023/01/09 06:06:32;;;;;;;4.90;0.83;;;21.60;58.40;;;;;;4933761;29;20498;-80
2023/01/09 06:09:02;;;;;;;0.87;0.87;;;21.60;58.30;;;;;;4936332;29;20466;-80
2023/01/09 06:11:30;;;;;;;2.03;1.10;;;21.60;58.80;;;;;;4935735;29;20466;-80
2023/01/09 06:13:58;;;;;;;1.03;0.87;;;21.60;58.90;;;;;;4929562;29;20595;-77
2023/01/09 06:16:26;;;;;;;0.77;0.77;;;21.60;59.00;;;;;;4926181;29;21106;-79
2023/01/09 06:18:55;;;;;;;1.53;0.87;;;21.60;59.10;;;;;;4929342;29;20483;-80
2023/01/09 06:21:23;;;;;;;0.70;0.70;;;21.60;59.10;;;;;;4928423;29;20510;-79
2023/01/09 06:23:52;;;;;;;1.67;0.93;;;21.60;59.30;;;;;;4927257;29;20474;-80
2023/01/09 06:26:21;;;;;;;4.60;0.80;;;21.60;59.20;;;;;;4933410;29;20586;-81
2023/01/09 06:28:49;;;;;;;1.03;0.97;;;21.60;59.40;;;;;;4929310;29;20902;-81
2023/01/09 06:31:17;;;;;;;3.07;0.90;;;21.60;59.50;;;;;;4929771;29;20491;-80
2023/01/09 06:33:46;;;;;;;2.40;1.80;;;21.60;59.60;;;;;;4931348;29;20827;-81
2023/01/09 06:36:15;;;;;;;3.30;0.90;;;21.60;59.70;;;;;;4932789;29;20488;-81
2023/01/09 06:38:43;;;;;;;1.53;1.20;;;21.60;59.70;;;;;;4932936;29;20559;-81
2023/01/09 06:41:11;;;;;;;2.00;1.50;;;21.60;59.70;;;;;;4928994;29;20575;-82
2023/01/09 06:43:41;;;;;;;1.80;1.20;;;21.60;59.70;;;;;;4925541;29;20463;-80
2023/01/09 06:46:09;;;;;;;1.77;1.03;;;21.60;59.80;;;;;;4923289;29;20550;-81
2023/01/09 06:48:38;;;;;;;6.07;1.33;;;21.60;59.80;;;;;;4929401;29;20455;-81
2023/01/09 06:51:06;;;;;;;2.93;1.80;;;21.60;59.80;;;;;;4934220;29;20538;-81
2023/01/09 06:53:34;;;;;;;5.53;1.70;;;21.60;59.90;;;;;;4931893;29;20507;-82
2023/01/09 06:56:03;;;;;;;4.10;1.50;;;21.60;59.90;;;;;;4931941;29;20490;-81
2023/01/09 06:58:31;;;;;;;2.30;1.57;;;21.70;59.90;;;;;;4932108;29;20853;-82
2023/01/09 07:01:00;;;;;;;7.03;1.60;;;21.70;59.70;;;;;;4930907;29;20577;-81
2023/01/09 07:03:29;;;;;;;2.73;1.67;;;21.70;59.60;;;;;;4930496;29;20458;-81
2023/01/09 07:05:59;;;;;;;3.23;1.67;;;21.70;59.70;;;;;;4931994;29;20499;-81
2023/01/09 07:08:28;;;;;;;1.67;1.37;;;21.70;59.60;;;;;;4929123;29;20953;-81
2023/01/09 07:10:56;;;;;;;5.73;2.30;;;21.70;59.60;;;;;;4929380;29;20559;-80
2023/01/09 07:13:24;;;;;;;4.70;1.80;;;21.70;59.60;;;;;;4924461;29;20986;-81
2023/01/09 07:15:53;;;;;;;3.60;1.70;;;21.80;59.30;;;;;;4922683;29;20487;-81
2023/01/09 07:18:22;;;;;;;2.43;1.43;;;21.80;59.60;;;;;;4928995;29;20464;-82
2023/01/09 07:20:51;;;;;;;2.07;1.40;;;21.70;59.70;;;;;;4933162;29;20950;-66
2023/01/09 07:23:19;;;;;;;6.77;2.10;;;21.70;59.80;;;;;;4927980;29;20781;-73
2023/01/09 07:25:49;;;;;;;4.93;1.10;;;21.70;59.70;;;;;;4921697;29;20957;-68
2023/01/09 07:28:17;;;;;;;2.13;1.37;;;21.70;59.70;;;;;;4929635;29;20550;-66
2023/01/09 07:30:46;;;;;;;3.03;1.90;;;21.70;59.70;;;;;;4928521;29;20463;-66
2023/01/09 07:33:14;;;;;;;4.27;1.40;;;21.70;59.70;;;;;;4927638;29;20878;-66
2023/01/09 07:35:43;;;;;;;3.00;0.90;;;21.70;59.70;;;;;;4932246;29;20541;-65
2023/01/09 07:38:12;;;;;;;1.77;1.07;;;21.70;59.60;;;;;;4929326;29;20489;-66
2023/01/09 07:40:40;;;;;;;3.00;1.40;;;21.70;59.80;;;;;;4927625;29;20895;-66
2023/01/09 07:43:08;;;;;;;4.20;1.37;;;21.60;59.80;;;;;;4929564;29;20575;-69
2023/01/09 07:45:36;;;;;;;4.23;1.70;;;21.60;59.80;;;;;;4926635;29;20456;-71
2023/01/09 07:48:05;;;;;;;6.00;1.77;;;21.60;60.30;;;;;;4926994;29;20462;-69
2023/01/09 07:50:34;;;;;;;2.93;1.50;;;21.60;60.60;;;;;;4930712;29;20506;-70
2023/01/09 07:53:03;;;;;;;2.40;1.83;;;21.60;61.20;;;;;;4931932;29;20534;-68
2023/01/09 07:55:32;;;;;;;4.43;1.70;;;21.60;62.00;;;;;;4925161;29;20575;-71
2023/01/09 07:58:00;;;;;;;4.70;2.00;;;21.70;62.20;;;;;;4924409;29;20463;-70
2023/01/09 08:00:28;;;;;;;6.70;2.33;;;21.70;62.60;;;;;;4928667;29;20471;-71
2023/01/09 08:03:00;;;;;;;10.90;2.13;;;21.70;62.80;;;;;;4930304;29;20483;-69
2023/01/09 08:05:28;;;;;;;4.80;2.57;;;21.70;63.00;;;;;;4929726;29;20567;-73
2023/01/09 08:07:56;;;;;;;4.30;2.30;;;21.80;63.10;;;;;;4927648;29;20645;-71
2023/01/09 08:10:26;;;;;;;3.60;1.70;;;21.80;63.20;;;;;;4923378;29;21068;-71
2023/01/09 08:12:54;;;;;;;3.80;1.93;;;21.80;63.30;;;;;;4931238;29;20547;-70
2023/01/09 08:15:22;;;;;;;5.20;2.60;;;21.80;63.30;;;;;;4929790;29;20463;-71
2023/01/09 08:17:51;;;;;;;4.77;1.60;;;21.90;63.30;;;;;;4927160;29;20582;-74
2023/01/09 08:20:19;;;;;;;3.13;1.77;;;21.90;62.80;;;;;;4925712;29;20453;-74
2023/01/09 08:22:52;;;;;;;5.20;1.43;;;21.90;62.40;;;;;;4929431;29;20566;-73
2023/01/09 08:25:21;;;;;;;8.90;2.57;;;21.90;62.30;;;;;;4930136;29;20948;-75
2023/01/09 08:27:50;;;;;;;3.53;1.73;;;21.90;62.60;;;;;;4930091;29;20483;-75
2023/01/09 08:30:19;;;;;;;2.70;2.43;;;21.90;63.20;;;;;;4926973;29;20461;-71
2023/01/09 08:32:50;;;;;;;2.80;1.63;;;21.90;62.80;;;;;;4929714;29;20474;-74
2023/01/09 08:35:18;;;;;;;4.00;1.50;;;22.00;62.70;;;;;;4927829;29;20961;-73
2023/01/09 08:37:48;;;;;;;4.40;1.20;;;22.00;62.30;;;;;;4930745;29;20546;-72
2023/01/09 08:40:17;;;;;;;8.37;1.80;;;21.90;62.50;;;;;;4930266;29;20467;-71
2023/01/09 08:48:18;;;;;;;3.23;0.90;;;21.90;62.50;;;;;;4927412;29;20464;-72
2023/01/09 08:50:46;;;;;;;3.50;1.10;;;21.90;62.70;;;;;;4931823;29;20551;-69
2023/01/09 08:53:15;;;;;;;4.40;1.20;;;21.90;62.40;;;;;;4937206;29;20550;-72
2023/01/09 08:55:43;;;;;;;2.53;1.53;;;21.90;62.30;;;;;;4934266;29;20503;-72
2023/01/09 08:58:12;;;;;;;4.90;1.30;;;21.90;61.80;;;;;;4936349;29;20554;-72
2023/01/09 09:00:41;;;;;;;4.63;1.87;;;21.90;62.30;;;;;;4931718;29;20546;-71
2023/01/09 09:03:10;;;;;;;3.13;1.53;;;22.00;61.80;;;;;;4935168;29;21006;-71
2023/01/09 09:05:38;;;;;;;2.27;1.10;;;22.00;61.90;;;;;;4935099;29;20915;-70
2023/01/09 09:08:07;;;;;;;4.20;1.10;;;22.00;61.50;;;;;;4929675;29;20790;-70
2023/01/09 09:10:35;;;;;;;1.93;1.30;;;22.00;61.40;;;;;;4934191;29;20467;-70
2023/01/09 09:13:03;;;;;;;3.00;1.37;;;21.90;61.50;;;;;;4935645;29;20511;-65
2023/01/09 09:15:33;;;;;;;1.37;1.00;;;21.90;60.90;;;;;;4932330;29;20450;-70
2023/01/09 09:18:04;;;;;;;2.70;1.20;;;21.90;61.60;;;;;;4936572;29;20538;-70
2023/01/09 09:20:35;;;;;;;3.70;1.47;;;22.00;61.40;;;;;;4933791;29;20495;-70
2023/01/09 09:23:04;;;;;;;1.97;1.00;;;21.90;61.90;;;;;;4932424;29;20559;-70
2023/01/09 09:25:32;;;;;;;4.93;1.60;;;21.90;61.20;;;;;;4934213;29;20542;-70
2023/01/09 09:28:01;;;;;;;2.97;1.47;;;21.90;61.60;;;;;;4931954;29;20488;-70
2023/01/09 09:30:29;;;;;;;2.60;1.07;;;21.90;61.00;;;;;;4935844;29;20463;-70
2023/01/09 09:32:57;;;;;;;4.17;1.00;;;21.90;61.60;;;;;;4931702;29;20817;-69
2023/01/09 09:35:27;;;;;;;2.27;1.30;;;21.90;61.20;;;;;;4934927;29;20538;-70
2023/01/09 09:37:57;;;;;;;1.83;1.00;;;21.90;61.40;;;;;;4936228;29;20998;-69
2023/01/09 09:40:40;;;;;;;2.20;1.20;;;21.90;61.30;;;;;;4931734;29;20534;-68
2023/01/09 09:46:31;;;;;;;1.07;0.97;;;21.90;61.00;;;;;;4933086;29;20554;-68
2023/01/09 09:49:04;;;;;;;1.23;0.97;;;21.90;61.20;;;;;;4946032;29;20469;-68
2023/01/09 09:51:48;;;;;;;1.27;1.17;;;21.90;61.20;;;;;;4936261;29;20478;-68
2023/01/09 09:54:24;;;;;;;1.63;0.90;;;22.00;60.90;;;;;;4936632;29;20484;-68
2023/01/09 09:56:56;;;;;;;2.03;0.90;;;22.00;60.80;;;;;;4937040;29;20439;-68
2023/01/09 09:59:29;;;;;;;1.77;0.60;;;22.00;60.40;;;;;;4933571;29;20472;-68
2023/01/09 10:02:02;;;;;;;0.73;0.73;;;22.00;60.80;;;;;;4934551;29;20566;-69
2023/01/09 10:04:36;;;;;;;0.73;0.73;;;22.00;60.60;;;;;;4934199;29;20464;-68
2023/01/09 10:07:10;;;;;;;1.10;0.80;;;22.00;60.40;;;;;;4933489;29;20575;-68
2023/01/09 10:09:47;;;;;;;1.90;0.80;;;22.00;60.60;;;;;;4926262;29;20493;-69
2023/01/09 10:12:27;;;;;;;1.87;0.50;;;22.00;60.30;;;;;;4920341;29;20510;-69
2023/01/09 10:14:57;;;;;;;1.90;0.70;;;22.00;60.00;;;;;;4933757;29;20562;-69
2023/01/09 10:17:43;;;;;;;1.63;0.70;;;22.00;60.20;;;;;;4934308;29;20506;-68
2023/01/09 10:20:39;;;;;;;2.37;0.70;;;22.00;60.00;;;;;;4936222;29;20456;-68
2023/01/09 10:23:20;;;;;;;1.20;0.70;;;22.00;59.80;;;;;;4936279;29;20483;-68
2023/01/09 10:25:56;;;;;;;1.60;1.03;;;22.00;60.00;;;;;;4936450;29;20495;-68
2023/01/09 10:28:48;;;;;;;2.10;1.00;;;22.00;60.00;;;;;;4935525;29;20439;-68
2023/01/09 10:31:25;;;;;;;1.30;0.90;;;22.00;60.10;;;;;;4932272;29;20498;-68
2023/01/09 10:34:05;;;;;;;1.00;0.90;;;22.00;60.10;;;;;;4931435;29;20455;-68
2023/01/09 10:36:50;;;;;;;1.27;0.87;;;22.10;60.00;;;;;;4932203;29;20504;-68
2023/01/09 10:39:25;;;;;;;0.70;0.70;;;22.10;59.90;;;;;;4934243;29;20471;-66
2023/01/09 10:41:58;;;;;;;1.43;0.83;;;22.20;59.60;;;;;;4933888;29;20527;-68
2023/01/09 10:44:33;;;;;;;3.57;0.90;;;22.20;59.90;;;;;;4932748;29;20483;-66
2023/01/09 10:47:04;;;;;;;1.43;1.10;;;22.30;59.90;;;;;;4934931;29;20475;-67
2023/01/09 10:49:32;;;;;;;1.17;0.60;;;22.40;60.10;;;;;;4926991;29;20796;-71
2023/01/09 10:52:12;;;;;;;1.43;0.80;;;22.40;59.80;;;;;;4932082;29;20476;-64
2023/01/09 10:54:52;;;;;;;1.30;1.10;;;22.40;59.90;;;;;;4929046;29;20515;-64
2023/01/09 10:57:41;;;;;;;0.97;0.63;;;22.40;59.80;;;;;;4930269;29;20535;-65
2023/01/09 11:00:17;;;;;;;1.30;1.10;;;22.40;60.30;;;;;;4929143;29;20943;-65
2023/01/09 11:02:46;;;;;;;1.20;0.60;;;22.40;60.10;;;;;;4934213;29;20452;-65
2023/01/09 11:05:19;;;;;;;1.07;0.90;;;22.40;60.10;;;;;;4934201;29;20470;-65
2023/01/09 11:07:53;;;;;;;2.40;0.90;;;22.40;59.90;;;;;;4924009;29;20444;-65
2023/01/09 11:10:22;;;;;;;0.80;0.80;;;22.40;59.70;;;;;;4929334;29;20484;-65
2023/01/09 11:12:50;;;;;;;1.07;0.90;;;22.50;59.60;;;;;;4936553;29;20611;-65
2023/01/09 11:15:30;;;;;;;0.80;0.80;;;22.50;59.80;;;;;;4939642;29;20992;-65
2023/01/09 11:18:18;;;;;;;1.90;0.73;;;22.50;60.10;;;;;;4935240;29;20457;-67
2023/01/09 11:20:46;;;;;;;1.27;1.17;;;22.40;59.80;;;;;;4926496;29;20639;-65
2023/01/09 11:23:25;;;;;;;2.80;0.80;;;22.40;59.80;;;;;;4933977;29;20518;-65
2023/01/09 11:25:57;;;;;;;1.93;0.90;;;22.50;59.90;;;;;;4933055;29;20503;-66
2023/01/09 11:28:25;;;;;;;2.50;0.80;;;22.40;59.60;;;;;;4934604;29;20484;-65
2023/01/09 11:30:56;;;;;;;0.70;0.70;;;22.40;59.40;;;;;;4934445;29;20896;-66
2023/01/09 11:33:26;;;;;;;0.70;0.60;;;22.40;59.30;;;;;;4931427;29;20951;-65
2023/01/09 11:36:14;;;;;;;1.23;0.60;;;22.40;60.00;;;;;;4934787;29;20798;-65
2023/01/09 11:38:49;;;;;;;0.87;0.70;;;22.40;59.20;;;;;;4933269;29;20448;-65
2023/01/09 11:41:22;;;;;;;0.93;0.57;;;22.40;59.30;;;;;;4934011;29;20525;-66
2023/01/09 11:43:52;;;;;;;2.10;1.20;;;22.40;59.10;;;;;;4933132;29;20844;-67
2023/01/09 11:46:33;;;;;;;0.73;0.60;;;22.40;59.70;;;;;;4931406;29;20983;-67
2023/01/09 11:49:03;;;;;;;0.70;0.50;;;22.40;59.80;;;;;;4935115;29;20450;-67
2023/01/09 11:51:33;;;;;;;1.87;0.70;;;22.40;59.50;;;;;;4933206;29;20535;-67
2023/01/09 11:54:19;;;;;;;1.20;0.87;;;22.50;59.10;;;;;;4929721;29;20588;-69
2023/01/09 11:56:50;;;;;;;0.60;0.50;;;22.50;59.10;;;;;;4927890;29;20542;-69
2023/01/09 11:59:21;;;;;;;1.80;0.80;;;22.50;59.20;;;;;;4927293;29;20444;-70
2023/01/09 12:02:28;;;;;;;1.10;0.87;;;22.50;59.00;;;;;;4921499;29;20560;-69
2023/01/09 12:05:00;;;;;;;1.07;0.50;;;22.50;58.70;;;;;;4921563;29;20614;-68
2023/01/09 12:08:04;;;;;;;1.33;0.83;;;22.40;58.60;;;;;;4928970;29;20451;-68
2023/01/09 12:11:07;;;;;;;1.43;0.70;;;22.40;58.50;;;;;;4918956;29;20951;-68
2023/01/09 12:13:50;;;;;;;0.80;0.80;;;22.30;58.90;;;;;;4906964;29;20500;-68
2023/01/09 12:16:29;;;;;;;1.30;0.80;;;22.30;59.20;;;;;;4928096;29;20482;-69
2023/01/09 12:19:10;;;;;;;2.90;1.40;;;22.20;59.10;;;;;;4925108;29;20462;-68
2023/01/09 12:21:48;;;;;;;3.90;1.53;;;22.20;59.10;;;;;;4924224;29;20526;-69
2023/01/09 12:24:52;;;;;;;3.97;2.30;;;22.20;59.20;;;;;;4928417;29;20483;-70
2023/01/09 12:27:31;;;;;;;3.67;2.30;;;22.20;59.60;;;;;;4931885;29;20483;-69
2023/01/09 12:30:16;;;;;;;3.47;3.10;;;22.20;59.70;;;;;;4934523;29;20550;-69
2023/01/09 12:32:54;;;;;;;4.90;2.93;;;22.20;59.40;;;;;;4937151;29;20455;-69
2023/01/09 12:35:33;;;;;;;3.50;2.97;;;22.10;59.90;;;;;;4932829;29;20962;-69
2023/01/09 12:38:22;;;;;;;10.40;3.17;;;22.10;59.60;;;;;;4935839;29;20455;-69
2023/01/09 12:41:08;;;;;;;9.20;4.20;;;22.10;59.80;;;;;;4927047;29;20528;-69
2023/01/09 12:43:47;;;;;;;7.67;5.20;;;22.10;59.70;;;;;;4929262;29;20851;-68
2023/01/09 12:46:19;;;;;;;5.93;4.67;;;22.10;59.20;;;;;;4925426;29;20464;-68
2023/01/09 12:49:16;;;;;;;10.20;5.10;;;22.10;59.80;;;;;;4928021;29;20455;-68
2023/01/09 12:51:48;;;;;;;6.20;4.63;;;22.10;59.70;;;;;;4928508;29;21999;-68
2023/01/09 12:54:24;;;;;;;7.30;5.17;;;22.00;59.90;;;;;;4933402;29;20954;-68
2023/01/09 12:56:57;;;;;;;9.47;4.67;;;22.00;60.00;;;;;;4932994;29;20471;-68
2023/01/09 12:59:33;;;;;;;7.73;4.30;;;22.00;59.70;;;;;;4927807;29;20471;-68
2023/01/09 13:02:16;;;;;;;6.60;4.20;;;22.10;59.40;;;;;;4932938;29;20466;-68
2023/01/09 13:04:52;;;;;;;7.40;3.57;;;22.10;59.60;;;;;;4926563;29;20498;-68
2023/01/09 13:07:23;;;;;;;6.93;4.63;;;22.10;59.50;;;;;;4931665;29;20534;-68
2023/01/09 13:09:57;;;;;;;7.73;3.93;;;22.20;59.50;;;;;;4930789;29;20535;-68
2023/01/09 13:12:27;;;;;;;6.70;4.33;;;22.20;58.90;;;;;;4925192;29;20464;-78
2023/01/09 13:15:00;;;;;;;6.13;4.40;;;22.20;59.60;;;;;;4933337;29;20527;-77
2023/01/09 13:17:35;;;;;;;7.30;4.27;;;22.20;59.90;;;;;;4934443;29;20484;-79
2023/01/09 13:20:18;;;;;;;10.70;4.40;;;22.20;60.10;;;;;;4934482;29;20486;-77
2023/01/09 13:22:49;;;;;;;7.70;4.00;;;22.20;60.00;;;;;;4934578;29;20480;-77